Time;durP1;ratioP1;P1;durP2;ratioP2;P2;SDS_P1;SDS_P2;PMS_P1;PMS_P2;Temp;Humidity;BMP_temperature;BMP_pressure;BME280_temperature;BME280_humidity;BME280_pressure;Samples;Min_cycle;Max_cycle;Signal;HPM_P1;HPM_P2
2021/12/27 00:00:02;;;;;;;15.43;10.73;;;4.00;99.90;;;;;;5113420;28;20196;-53
2021/12/27 00:02:27;;;;;;;18.10;11.10;;;4.00;99.90;;;;;;5114056;28;20229;-53
2021/12/27 00:04:53;;;;;;;18.00;10.88;;;4.00;99.90;;;;;;5113463;28;20165;-53
2021/12/27 00:07:18;;;;;;;15.65;10.90;;;4.00;99.90;;;;;;5113303;28;20627;-53
2021/12/27 00:09:44;;;;;;;17.27;11.02;;;4.00;99.90;;;;;;5113412;28;20172;-53
2021/12/27 00:12:09;;;;;;;15.93;10.60;;;3.90;99.90;;;;;;5077039;28;1059290;-52
2021/12/27 00:14:35;;;;;;;17.45;11.98;;;4.00;99.90;;;;;;5114404;28;20585;-54
2021/12/27 00:17:01;;;;;;;17.33;11.20;;;4.00;99.90;;;;;;5114298;28;20632;-54
2021/12/27 00:19:26;;;;;;;18.77;11.10;;;4.10;99.90;;;;;;5114427;28;20263;-54
2021/12/27 00:21:52;;;;;;;18.65;10.77;;;4.10;99.90;;;;;;5114429;28;20218;-53
2021/12/27 00:24:17;;;;;;;17.15;10.43;;;4.10;99.90;;;;;;5114077;28;20176;-53
2021/12/27 00:26:44;;;;;;;18.55;11.57;;;4.10;99.90;;;;;;5114026;28;20176;-53
2021/12/27 00:29:10;;;;;;;16.45;10.57;;;4.10;99.90;;;;;;5114008;28;20164;-54
2021/12/27 00:31:36;;;;;;;16.50;10.38;;;4.20;99.90;;;;;;5113992;28;20628;-54
2021/12/27 00:34:01;;;;;;;15.55;10.15;;;4.10;99.90;;;;;;5114090;28;20221;-53
2021/12/27 00:36:27;;;;;;;18.02;10.93;;;4.10;99.90;;;;;;5114196;28;20164;-53
2021/12/27 00:38:52;;;;;;;18.48;11.80;;;4.10;99.90;;;;;;5113837;28;20175;-53
2021/12/27 00:41:18;;;;;;;17.35;10.75;;;4.00;99.90;;;;;;5112939;28;20285;-53
2021/12/27 00:43:44;;;;;;;16.77;10.85;;;4.10;99.90;;;;;;5113700;28;20523;-54
2021/12/27 00:46:09;;;;;;;16.98;10.20;;;4.00;99.90;;;;;;5113619;28;20177;-54
2021/12/27 00:48:35;;;;;;;16.45;10.82;;;4.10;99.90;;;;;;5113606;28;20251;-54
2021/12/27 00:51:01;;;;;;;13.80;9.90;;;4.20;99.90;;;;;;5113692;28;20252;-53
2021/12/27 00:53:26;;;;;;;16.15;10.38;;;4.20;99.90;;;;;;5114091;28;20659;-54
2021/12/27 00:55:52;;;;;;;16.38;10.45;;;4.20;99.90;;;;;;5113447;28;20636;-53
2021/12/27 00:58:17;;;;;;;17.33;10.95;;;4.10;99.90;;;;;;5113426;28;20173;-53
2021/12/27 01:00:43;;;;;;;17.05;10.20;;;4.10;99.90;;;;;;5113277;28;20261;-53
2021/12/27 01:03:09;;;;;;;16.95;11.20;;;4.10;99.90;;;;;;5113388;28;20193;-53
2021/12/27 01:05:34;;;;;;;16.80;10.57;;;4.10;99.90;;;;;;5113333;28;20179;-53
2021/12/27 01:08:00;;;;;;;16.33;11.13;;;4.10;99.90;;;;;;5113529;28;20160;-53
2021/12/27 01:13:20;;;;;;;17.65;10.98;;;4.10;99.90;;;;;;5113426;28;20268;-53
2021/12/27 01:15:51;;;;;;;16.05;10.15;;;4.10;99.90;;;;;;5113561;28;20551;-53
2021/12/27 01:18:18;;;;;;;15.48;10.20;;;4.20;99.90;;;;;;5113184;28;20164;-53
2021/12/27 01:20:44;;;;;;;14.82;9.90;;;4.20;99.90;;;;;;5112974;28;20200;-53
2021/12/27 01:23:11;;;;;;;14.52;9.88;;;4.10;99.90;;;;;;5113305;28;20576;-53
2021/12/27 01:25:36;;;;;;;14.13;9.50;;;4.20;99.90;;;;;;5094758;28;20176;-53
2021/12/27 01:28:02;;;;;;;15.70;10.00;;;4.30;99.90;;;;;;5112923;28;20164;-53
2021/12/27 01:30:28;;;;;;;15.48;9.75;;;4.30;99.90;;;;;;5113473;28;20169;-54
2021/12/27 01:32:58;;;;;;;15.52;10.20;;;4.30;99.90;;;;;;5113151;28;20261;-54
2021/12/27 01:35:24;;;;;;;14.35;9.00;;;4.30;99.90;;;;;;5112799;28;20637;-53
2021/12/27 01:37:51;;;;;;;14.65;9.95;;;4.30;99.90;;;;;;5112814;28;20257;-54
2021/12/27 01:40:18;;;;;;;16.13;9.63;;;4.40;99.90;;;;;;5112914;28;20192;-53
2021/12/27 01:43:31;;;;;;;14.13;9.18;;;4.20;99.90;;;;;;5112782;28;20221;-53
2021/12/27 01:46:17;;;;;;;14.05;9.63;;;4.30;99.90;;;;;;5010800;28;20176;-54
2021/12/27 01:48:54;;;;;;;12.82;8.20;;;4.40;99.90;;;;;;5112681;28;20164;-54
2021/12/27 01:51:21;;;;;;;11.93;8.35;;;4.30;99.90;;;;;;5112563;28;20168;-54
2021/12/27 01:53:47;;;;;;;14.77;9.43;;;4.40;99.90;;;;;;5112485;28;20168;-54
2021/12/27 01:56:14;;;;;;;12.45;8.63;;;4.30;99.90;;;;;;5112583;28;20160;-53
2021/12/27 01:58:40;;;;;;;13.00;8.43;;;4.30;99.90;;;;;;5094242;28;20168;-53
2021/12/27 02:01:08;;;;;;;11.98;8.90;;;4.30;99.90;;;;;;5112470;28;20200;-53
2021/12/27 02:03:35;;;;;;;13.60;9.10;;;4.40;99.90;;;;;;5094256;28;20167;-53
2021/12/27 02:06:01;;;;;;;15.85;9.40;;;4.30;99.90;;;;;;5112985;28;20174;-54
2021/12/27 02:08:27;;;;;;;12.07;8.50;;;4.40;99.90;;;;;;5094424;28;20528;-54
2021/12/27 02:10:53;;;;;;;16.00;9.85;;;4.30;99.90;;;;;;5112294;28;20212;-54
2021/12/27 02:13:19;;;;;;;14.07;9.00;;;4.30;99.90;;;;;;5112377;28;20362;-53
2021/12/27 02:15:45;;;;;;;14.40;9.32;;;4.30;99.90;;;;;;5112385;28;20157;-54
2021/12/27 02:18:11;;;;;;;14.45;9.35;;;4.40;99.90;;;;;;5112302;28;20224;-53
2021/12/27 02:20:39;;;;;;;14.57;9.00;;;4.30;99.90;;;;;;5112476;28;20309;-53
2021/12/27 02:23:15;;;;;;;14.30;9.40;;;4.40;99.90;;;;;;5112295;28;20165;-53
2021/12/27 02:25:46;;;;;;;14.23;9.63;;;4.40;99.90;;;;;;5112545;28;20172;-52
2021/12/27 02:28:12;;;;;;;13.90;9.40;;;4.40;99.90;;;;;;5112434;28;20173;-53
2021/12/27 02:30:41;;;;;;;12.75;8.85;;;4.50;99.90;;;;;;5112194;28;20173;-53
2021/12/27 02:33:08;;;;;;;13.48;8.85;;;4.50;99.90;;;;;;5093953;28;20165;-52
2021/12/27 02:35:44;;;;;;;11.85;8.25;;;4.40;99.90;;;;;;5112066;28;20168;-52
2021/12/27 02:38:19;;;;;;;14.63;8.95;;;4.50;99.90;;;;;;5112052;28;20175;-54
2021/12/27 02:40:45;;;;;;;15.95;9.02;;;4.40;99.90;;;;;;5112039;28;20200;-52
2021/12/27 02:43:15;;;;;;;14.20;9.32;;;4.50;99.90;;;;;;5094373;28;20175;-53
2021/12/27 02:45:54;;;;;;;15.40;8.82;;;4.50;99.90;;;;;;5112277;28;20260;-53
2021/12/27 02:48:22;;;;;;;13.70;9.43;;;4.40;99.90;;;;;;5112061;28;20305;-53
2021/12/27 02:50:49;;;;;;;15.05;9.40;;;4.40;99.90;;;;;;5112038;28;20168;-52
2021/12/27 02:53:15;;;;;;;15.57;9.15;;;4.50;99.90;;;;;;5111959;28;20169;-53
2021/12/27 02:55:41;;;;;;;14.27;8.77;;;4.40;99.90;;;;;;5111946;28;20175;-52
2021/12/27 02:58:07;;;;;;;14.10;9.30;;;4.50;99.90;;;;;;5111998;28;20161;-52
2021/12/27 03:00:44;;;;;;;14.00;9.60;;;4.50;99.90;;;;;;5111865;28;20723;-52
2021/12/27 03:03:10;;;;;;;14.85;9.02;;;4.50;99.90;;;;;;5112154;28;20636;-52
2021/12/27 03:05:36;;;;;;;14.90;9.95;;;4.50;99.90;;;;;;5116206;28;20183;-52
2021/12/27 03:08:02;;;;;;;15.43;9.38;;;4.50;99.90;;;;;;5115666;28;20161;-52
2021/12/27 03:10:31;;;;;;;12.18;8.30;;;4.50;99.90;;;;;;5115718;28;20571;-52
2021/12/27 03:12:58;;;;;;;15.13;9.88;;;4.40;99.90;;;;;;5116127;28;20532;-52
2021/12/27 03:15:24;;;;;;;14.27;10.07;;;4.50;99.90;;;;;;5115480;28;20196;-52
2021/12/27 03:17:53;;;;;;;14.90;8.50;;;4.40;99.90;;;;;;5115497;28;20647;-52
2021/12/27 03:20:22;;;;;;;14.48;9.48;;;4.40;99.90;;;;;;5115239;28;20204;-53
2021/12/27 03:22:47;;;;;;;13.05;8.82;;;4.40;99.90;;;;;;5115945;28;20567;-52
2021/12/27 03:25:16;;;;;;;13.27;9.68;;;4.40;99.90;;;;;;5115324;28;20249;-52
2021/12/27 03:27:43;;;;;;;13.68;9.35;;;4.40;99.90;;;;;;5115204;28;20171;-52
2021/12/27 03:30:11;;;;;;;15.20;9.98;;;4.40;99.90;;;;;;5115092;28;20169;-52
2021/12/27 03:32:37;;;;;;;15.55;9.43;;;4.40;99.90;;;;;;5115186;28;20157;-52
2021/12/27 03:35:11;;;;;;;16.25;10.05;;;4.40;99.90;;;;;;5115133;28;20243;-52
2021/12/27 03:37:39;;;;;;;15.13;9.70;;;4.30;99.90;;;;;;5115349;28;20504;-52
2021/12/27 03:40:08;;;;;;;13.93;8.75;;;4.40;99.90;;;;;;5115063;28;20200;-52
2021/12/27 03:42:33;;;;;;;15.00;10.18;;;4.40;99.90;;;;;;5114883;28;20179;-53
2021/12/27 03:44:59;;;;;;;14.68;9.57;;;4.40;99.90;;;;;;5115241;28;20172;-52
2021/12/27 03:47:25;;;;;;;15.63;10.35;;;4.40;99.90;;;;;;5114901;28;20235;-53
2021/12/27 03:49:50;;;;;;;13.63;9.05;;;4.40;99.90;;;;;;5114822;28;20172;-52
2021/12/27 03:52:16;;;;;;;15.52;10.05;;;4.40;99.90;;;;;;5114773;28;20165;-54
2021/12/27 03:54:41;;;;;;;15.30;10.30;;;4.40;99.90;;;;;;5114862;28;20168;-52
2021/12/27 03:57:07;;;;;;;13.75;9.18;;;4.30;99.90;;;;;;5114724;28;20167;-53
2021/12/27 03:59:49;;;;;;;16.58;9.82;;;4.40;99.90;;;;;;5114568;28;20164;-53
2021/12/27 04:02:15;;;;;;;13.13;8.82;;;4.40;99.90;;;;;;5114461;28;20658;-52
2021/12/27 04:04:42;;;;;;;14.65;10.00;;;4.40;99.90;;;;;;5114574;28;20161;-52
2021/12/27 04:07:09;;;;;;;14.82;10.00;;;4.40;99.90;;;;;;5114422;28;20230;-52
2021/12/27 04:09:36;;;;;;;12.32;8.52;;;4.40;99.90;;;;;;5096145;28;20172;-52
2021/12/27 04:12:02;;;;;;;15.02;9.75;;;4.40;99.90;;;;;;5114205;28;20268;-52
2021/12/27 04:14:28;;;;;;;13.48;9.00;;;4.50;99.90;;;;;;5114674;28;20187;-51
2021/12/27 04:16:54;;;;;;;12.27;9.00;;;4.50;99.90;;;;;;5113433;28;20680;-51
2021/12/27 04:19:20;;;;;;;13.30;9.20;;;4.50;99.90;;;;;;5114176;28;20644;-52
2021/12/27 04:21:46;;;;;;;13.90;8.65;;;4.60;99.90;;;;;;5114206;28;20168;-52
2021/12/27 04:24:12;;;;;;;13.88;8.82;;;4.50;99.90;;;;;;5114160;28;20195;-52
2021/12/27 04:26:37;;;;;;;14.82;9.23;;;4.50;99.90;;;;;;5114131;28;20165;-52
2021/12/27 04:29:04;;;;;;;14.35;8.70;;;4.60;99.90;;;;;;5114184;28;20560;-52
2021/12/27 04:31:30;;;;;;;13.18;9.20;;;4.60;99.90;;;;;;5114294;28;20208;-52
2021/12/27 04:33:55;;;;;;;13.38;8.80;;;4.60;99.90;;;;;;5113951;28;20192;-52
2021/12/27 04:36:21;;;;;;;13.45;8.52;;;4.60;99.90;;;;;;5113885;28;20203;-52
2021/12/27 04:38:46;;;;;;;13.57;8.50;;;4.60;99.90;;;;;;5113855;28;20222;-52
2021/12/27 04:41:16;;;;;;;14.88;8.40;;;4.60;99.90;;;;;;5113806;28;20200;-52
2021/12/27 04:43:42;;;;;;;13.75;8.88;;;4.60;99.90;;;;;;5113760;28;20171;-52
2021/12/27 04:46:07;;;;;;;13.27;9.25;;;4.60;99.90;;;;;;5113791;28;20250;-52
2021/12/27 04:48:33;;;;;;;12.95;8.40;;;4.60;99.90;;;;;;5113722;28;20157;-52
2021/12/27 04:50:59;;;;;;;13.65;9.10;;;4.60;99.90;;;;;;5113995;28;20572;-52
2021/12/27 04:53:25;;;;;;;11.75;8.23;;;4.70;99.90;;;;;;5113592;28;20156;-52
2021/12/27 04:55:50;;;;;;;13.65;8.73;;;4.60;99.90;;;;;;5113573;28;20217;-52
2021/12/27 04:58:17;;;;;;;14.20;8.75;;;4.60;99.90;;;;;;5113756;28;20278;-52
2021/12/27 05:00:45;;;;;;;12.25;8.27;;;4.70;99.90;;;;;;5113421;28;20220;-52
2021/12/27 05:03:10;;;;;;;12.75;8.57;;;4.70;99.90;;;;;;5113483;28;20184;-51
2021/12/27 05:05:37;;;;;;;14.23;8.30;;;4.70;99.90;;;;;;5113374;28;20623;-52
2021/12/27 05:08:03;;;;;;;12.13;8.60;;;4.60;99.90;;;;;;5113307;28;20165;-51
2021/12/27 05:10:30;;;;;;;13.00;8.85;;;4.70;99.90;;;;;;5113509;28;20208;-51
2021/12/27 05:12:56;;;;;;;12.30;8.15;;;4.70;99.90;;;;;;5113351;28;20161;-52
2021/12/27 05:15:29;;;;;;;12.25;8.27;;;4.70;99.90;;;;;;5112794;28;20165;-52
2021/12/27 05:17:55;;;;;;;11.50;8.38;;;4.70;99.90;;;;;;5094565;28;20602;-53
2021/12/27 05:20:20;;;;;;;12.40;8.00;;;4.70;99.90;;;;;;5112819;28;20240;-53
2021/12/27 05:22:46;;;;;;;13.13;8.73;;;4.70;99.90;;;;;;5113028;28;20168;-57
2021/12/27 05:25:16;;;;;;;11.30;8.73;;;4.70;99.90;;;;;;5094682;28;20628;-54
2021/12/27 05:27:42;;;;;;;12.38;8.63;;;4.70;99.90;;;;;;5112623;28;20188;-53
2021/12/27 05:30:11;;;;;;;13.98;8.20;;;4.70;99.90;;;;;;5112898;28;20160;-53
2021/12/27 05:32:38;;;;;;;12.48;8.57;;;4.70;99.90;;;;;;5112953;28;20297;-53
2021/12/27 05:35:05;;;;;;;12.60;8.93;;;4.70;99.90;;;;;;5112758;28;20157;-52
2021/12/27 05:37:31;;;;;;;15.38;9.18;;;4.70;99.90;;;;;;5112994;28;20168;-53
2021/12/27 05:40:03;;;;;;;13.55;9.00;;;4.70;99.90;;;;;;5113064;28;20683;-53
2021/12/27 05:42:28;;;;;;;13.00;7.65;;;4.80;99.90;;;;;;5113315;28;20176;-53
2021/12/27 05:44:54;;;;;;;13.10;8.27;;;4.70;99.90;;;;;;5112740;28;20165;-53
2021/12/27 05:47:19;;;;;;;11.95;8.23;;;4.80;99.90;;;;;;5112644;28;20259;-53
2021/12/27 05:49:45;;;;;;;13.95;8.30;;;4.80;99.90;;;;;;5112657;28;20165;-54
2021/12/27 05:52:10;;;;;;;12.65;7.32;;;4.80;99.90;;;;;;5112568;28;20657;-54
2021/12/27 05:54:36;;;;;;;13.93;8.52;;;4.80;99.90;;;;;;5112378;28;20179;-54
2021/12/27 05:57:03;;;;;;;13.00;8.48;;;4.80;99.90;;;;;;5112583;28;20168;-53
2021/12/27 05:59:28;;;;;;;14.20;7.75;;;4.80;99.90;;;;;;5112996;28;20207;-54
2021/12/27 06:01:54;;;;;;;12.52;8.23;;;4.80;99.90;;;;;;5112479;28;20176;-53
2021/12/27 06:04:19;;;;;;;13.68;9.02;;;4.80;99.90;;;;;;5112403;28;20214;-54
2021/12/27 06:06:45;;;;;;;12.77;8.20;;;4.80;99.90;;;;;;5112447;28;20218;-53
2021/12/27 06:09:10;;;;;;;13.88;8.38;;;4.90;99.90;;;;;;5112404;28;20214;-52
2021/12/27 06:11:36;;;;;;;13.45;7.82;;;4.80;99.90;;;;;;5111317;28;20695;-52
2021/12/27 06:14:01;;;;;;;12.70;8.02;;;4.80;99.90;;;;;;5112274;28;20525;-52
2021/12/27 06:16:27;;;;;;;11.88;8.38;;;4.80;99.90;;;;;;5112663;28;20233;-52
2021/12/27 06:18:52;;;;;;;13.63;7.93;;;4.90;99.90;;;;;;5112304;28;20179;-52
2021/12/27 06:21:18;;;;;;;14.18;8.82;;;4.80;99.90;;;;;;5112060;28;20200;-52
2021/12/27 06:23:43;;;;;;;14.45;7.65;;;4.80;99.90;;;;;;5112192;28;20210;-52
2021/12/27 06:26:09;;;;;;;14.27;8.63;;;4.70;99.90;;;;;;5112166;28;20172;-52
2021/12/27 06:28:35;;;;;;;11.38;7.93;;;4.80;99.90;;;;;;5112129;28;20196;-52
2021/12/27 06:31:02;;;;;;;14.75;8.48;;;4.80;99.90;;;;;;5112126;28;20168;-52
2021/12/27 06:33:28;;;;;;;11.57;7.72;;;4.90;99.90;;;;;;5112391;28;20177;-52
2021/12/27 06:35:54;;;;;;;12.90;8.02;;;4.90;99.90;;;;;;5112397;28;20182;-52
2021/12/27 06:38:21;;;;;;;12.27;8.43;;;4.90;99.90;;;;;;5112512;28;20870;-53
2021/12/27 06:40:47;;;;;;;12.02;8.00;;;4.90;99.90;;;;;;5116382;28;20214;-53
2021/12/27 06:43:13;;;;;;;14.57;8.80;;;5.00;99.90;;;;;;5116126;28;20628;-53
2021/12/27 06:45:39;;;;;;;15.75;8.35;;;4.90;99.90;;;;;;5097859;28;20183;-53
2021/12/27 06:48:04;;;;;;;12.05;8.10;;;4.90;99.90;;;;;;5116025;28;20175;-53
2021/12/27 06:50:30;;;;;;;12.18;8.13;;;5.00;99.90;;;;;;5116427;28;20168;-52
2021/12/27 06:52:56;;;;;;;11.45;7.68;;;4.90;99.90;;;;;;5116391;28;20165;-53
2021/12/27 06:55:21;;;;;;;13.88;8.35;;;5.00;99.90;;;;;;5115879;28;20500;-53
2021/12/27 06:57:48;;;;;;;13.40;8.15;;;4.90;99.90;;;;;;5115952;28;20211;-53
2021/12/27 07:00:15;;;;;;;13.77;8.88;;;4.90;99.90;;;;;;5115805;28;20204;-53
2021/12/27 07:02:41;;;;;;;11.30;7.78;;;5.00;99.90;;;;;;5115974;28;20203;-53
2021/12/27 07:05:08;;;;;;;13.25;8.05;;;5.00;99.90;;;;;;5115978;28;20586;-53
2021/12/27 07:07:33;;;;;;;12.13;8.15;;;5.00;99.90;;;;;;5115682;28;20541;-53
2021/12/27 07:09:59;;;;;;;13.32;8.07;;;5.00;99.90;;;;;;5116016;28;20163;-52
2021/12/27 07:12:25;;;;;;;12.82;7.68;;;4.90;99.90;;;;;;5115882;28;20256;-54
2021/12/27 07:14:53;;;;;;;11.35;7.88;;;5.00;99.90;;;;;;5115536;28;20165;-53
2021/12/27 07:17:18;;;;;;;13.13;8.00;;;5.00;99.90;;;;;;5115775;28;20176;-53
2021/12/27 07:19:44;;;;;;;11.30;8.10;;;5.00;99.90;;;;;;5115355;28;20638;-53
2021/12/27 07:22:09;;;;;;;11.27;7.03;;;4.90;99.90;;;;;;5115436;28;20176;-53
2021/12/27 07:24:35;;;;;;;11.48;8.02;;;5.00;99.90;;;;;;5115382;28;20161;-53
2021/12/27 07:27:00;;;;;;;10.77;7.72;;;5.00;99.90;;;;;;5115299;28;20172;-52
2021/12/27 07:29:26;;;;;;;14.77;8.55;;;5.00;99.90;;;;;;5115528;28;20240;-54
2021/12/27 07:31:52;;;;;;;14.18;8.82;;;5.00;99.90;;;;;;5115236;28;20196;-53
2021/12/27 07:34:19;;;;;;;12.82;8.57;;;4.90;99.90;;;;;;5115193;28;20207;-53
2021/12/27 07:36:46;;;;;;;12.93;7.78;;;5.00;99.90;;;;;;5115039;28;20512;-53
2021/12/27 07:39:13;;;;;;;11.35;7.57;;;4.90;99.90;;;;;;5114993;28;20192;-53
2021/12/27 07:41:38;;;;;;;11.77;7.88;;;4.90;99.90;;;;;;5114591;28;20252;-53
2021/12/27 07:44:04;;;;;;;11.85;7.88;;;4.90;99.90;;;;;;5114937;28;20195;-52
2021/12/27 07:46:30;;;;;;;12.07;7.97;;;4.90;99.90;;;;;;5115488;28;20168;-52
2021/12/27 07:48:55;;;;;;;13.55;8.20;;;4.90;99.90;;;;;;5115262;28;20613;-53
2021/12/27 07:51:21;;;;;;;12.80;8.38;;;4.90;99.90;;;;;;5114661;28;20161;-54
2021/12/27 07:53:47;;;;;;;12.35;7.80;;;4.80;99.90;;;;;;5114837;28;20620;-53
2021/12/27 07:56:12;;;;;;;13.90;8.32;;;4.90;99.90;;;;;;5114756;28;20289;-54
2021/12/27 07:58:38;;;;;;;13.80;8.57;;;4.90;99.90;;;;;;5114701;28;20658;-54
2021/12/27 08:01:04;;;;;;;10.88;7.97;;;4.80;99.90;;;;;;5114833;28;20204;-53
2021/12/27 08:03:30;;;;;;;10.80;7.63;;;4.80;99.90;;;;;;5114914;28;20564;-54
2021/12/27 08:05:55;;;;;;;11.45;7.22;;;5.20;99.90;;;;;;5114906;28;20251;-54
2021/12/27 08:08:21;;;;;;;13.23;7.60;;;4.80;99.90;;;;;;5114525;28;20213;-54
2021/12/27 08:10:46;;;;;;;13.38;7.35;;;4.90;99.90;;;;;;5114538;28;20220;-53
2021/12/27 08:13:12;;;;;;;13.05;7.95;;;4.90;99.90;;;;;;5114396;28;20635;-53
2021/12/27 08:15:38;;;;;;;12.70;8.43;;;4.90;99.90;;;;;;5114390;28;20176;-54
2021/12/27 08:18:04;;;;;;;12.68;7.88;;;4.90;99.90;;;;;;5114542;28;20171;-53
2021/12/27 08:20:30;;;;;;;14.43;7.88;;;4.90;99.90;;;;;;5114466;28;20208;-54
2021/12/27 08:22:56;;;;;;;14.95;8.77;;;4.90;99.90;;;;;;5114592;28;20168;-54
2021/12/27 08:25:21;;;;;;;14.57;8.30;;;4.90;99.90;;;;;;5114122;28;20161;-54
2021/12/27 08:27:47;;;;;;;12.23;8.48;;;4.90;99.90;;;;;;5114124;28;20303;-54
2021/12/27 08:30:13;;;;;;;14.93;9.10;;;5.00;99.90;;;;;;5114137;28;20161;-54
2021/12/27 08:32:42;;;;;;;15.55;9.10;;;4.90;99.90;;;;;;5112127;28;20180;-54
2021/12/27 08:35:09;;;;;;;14.70;9.75;;;5.00;99.90;;;;;;5112626;28;20525;-53
2021/12/27 08:37:36;;;;;;;18.42;9.85;;;5.00;99.90;;;;;;5109076;28;20180;-53
2021/12/27 08:40:02;;;;;;;19.92;10.30;;;5.00;99.90;;;;;;5114296;27;20251;-53
2021/12/27 08:42:28;;;;;;;15.38;9.65;;;5.00;99.90;;;;;;5133252;27;20172;-59
2021/12/27 08:44:54;;;;;;;18.08;10.50;;;5.10;99.90;;;;;;5132914;27;20650;-54
2021/12/27 08:47:19;;;;;;;18.02;11.07;;;5.10;99.90;;;;;;5132960;27;20220;-53
2021/12/27 08:49:45;;;;;;;15.13;10.07;;;5.10;99.90;;;;;;5132858;27;20673;-58
2021/12/27 08:52:11;;;;;;;16.88;10.52;;;5.20;99.90;;;;;;5114500;27;20217;-59
2021/12/27 08:54:37;;;;;;;17.52;10.38;;;5.20;99.90;;;;;;5132740;27;20221;-56
2021/12/27 08:57:05;;;;;;;15.15;10.18;;;5.20;99.90;;;;;;5114383;27;20572;-52
2021/12/27 08:59:31;;;;;;;17.35;9.73;;;5.20;99.90;;;;;;5132884;27;20172;-60
2021/12/27 09:01:57;;;;;;;15.30;9.23;;;5.30;99.90;;;;;;5132326;27;20183;-52
2021/12/27 09:04:23;;;;;;;13.20;9.25;;;5.30;99.90;;;;;;5132662;27;20247;-55
2021/12/27 09:06:49;;;;;;;15.23;9.40;;;5.30;99.90;;;;;;5132489;27;20192;-55
2021/12/27 09:09:15;;;;;;;14.55;10.10;;;5.30;99.90;;;;;;5132450;27;20165;-53
2021/12/27 09:11:41;;;;;;;15.55;9.48;;;5.40;99.90;;;;;;5132759;27;20226;-53
2021/12/27 09:14:07;;;;;;;11.68;8.13;;;5.40;99.90;;;;;;5132468;27;20251;-54
2021/12/27 09:16:33;;;;;;;14.15;8.95;;;5.40;99.90;;;;;;5132263;27;20707;-53
2021/12/27 09:18:58;;;;;;;13.35;8.60;;;5.50;99.90;;;;;;5114303;27;20163;-52
2021/12/27 09:21:24;;;;;;;15.00;8.38;;;5.40;99.90;;;;;;5132133;27;20287;-47
2021/12/27 09:23:50;;;;;;;12.70;8.55;;;5.40;99.90;;;;;;5132504;27;20232;-60
2021/12/27 09:26:16;;;;;;;13.95;8.50;;;5.50;99.90;;;;;;5132304;27;20173;-56
2021/12/27 09:28:41;;;;;;;16.33;9.65;;;5.50;99.90;;;;;;5132039;27;20167;-57
2021/12/27 09:31:07;;;;;;;15.70;10.82;;;5.50;99.90;;;;;;5132169;27;20170;-63
2021/12/27 09:33:32;;;;;;;15.93;10.93;;;5.60;99.90;;;;;;5132002;27;20172;-58
2021/12/27 09:35:58;;;;;;;19.70;11.57;;;5.60;99.90;;;;;;5132399;27;20183;-49
2021/12/27 09:38:24;;;;;;;20.67;13.10;;;5.70;99.90;;;;;;5132026;27;20156;-51
2021/12/27 09:40:50;;;;;;;12.27;8.73;;;5.70;99.90;;;;;;5131809;27;20265;-55
2021/12/27 09:43:16;;;;;;;14.77;9.60;;;5.80;99.90;;;;;;5131956;27;20170;-49
2021/12/27 09:45:42;;;;;;;13.43;9.23;;;5.70;99.90;;;;;;5131915;27;20174;-59
2021/12/27 09:48:08;;;;;;;15.02;9.85;;;5.80;99.90;;;;;;5132130;27;20164;-57
2021/12/27 09:50:35;;;;;;;13.20;9.13;;;5.90;99.90;;;;;;5113514;27;20164;-56
2021/12/27 09:53:01;;;;;;;17.77;9.52;;;5.90;99.90;;;;;;5131792;27;20168;-55
2021/12/27 09:55:27;;;;;;;32.40;21.52;;;5.90;99.90;;;;;;5132108;27;20168;-55
2021/12/27 09:57:54;;;;;;;29.60;18.48;;;5.90;99.90;;;;;;5131878;27;20168;-55
2021/12/27 10:00:20;;;;;;;42.08;25.38;;;6.00;99.90;;;;;;5113291;27;20248;-55
2021/12/27 10:02:50;;;;;;;86.95;54.05;;;6.10;99.90;;;;;;5131649;27;20168;-56
2021/12/27 10:05:16;;;;;;;37.25;23.70;;;6.10;99.90;;;;;;5131849;27;20170;-55
2021/12/27 10:07:42;;;;;;;17.17;11.48;;;6.20;99.90;;;;;;5131681;28;20167;-56
2021/12/27 10:10:09;;;;;;;49.00;31.58;;;6.20;99.90;;;;;;5131594;28;20179;-56
2021/12/27 10:12:36;;;;;;;20.95;15.65;;;6.30;99.90;;;;;;5132380;27;20164;-55
2021/12/27 10:15:05;;;;;;;22.95;16.90;;;6.20;99.90;;;;;;5135957;27;20191;-55
2021/12/27 10:17:34;;;;;;;23.80;16.73;;;6.20;99.90;;;;;;5135866;27;20156;-54
2021/12/27 10:20:12;;;;;;;19.33;13.57;;;6.20;99.90;;;;;;5136082;27;20570;-53
2021/12/27 10:22:46;;;;;;;19.33;13.27;;;6.30;99.90;;;;;;5135932;27;20168;-55
2021/12/27 10:25:20;;;;;;;66.20;42.97;;;6.30;99.90;;;;;;5135731;27;20183;-56
2021/12/27 10:27:50;;;;;;;24.60;17.92;;;6.30;99.90;;;;;;5135718;27;20232;-54
2021/12/27 10:30:19;;;;;;;29.83;22.67;;;6.40;99.90;;;;;;5135664;27;20201;-55
2021/12/27 10:33:21;;;;;;;17.90;14.43;;;6.30;99.90;;;;;;5135715;27;20191;-55
2021/12/27 10:35:56;;;;;;;72.70;41.90;;;6.40;99.90;;;;;;5135837;27;20164;-55
2021/12/27 10:38:25;;;;;;;16.55;14.13;;;6.40;99.90;;;;;;5135777;27;20171;-56
2021/12/27 10:40:57;;;;;;;11.68;8.23;;;6.40;99.90;;;;;;5135375;27;20344;-55
2021/12/27 10:43:38;;;;;;;15.60;10.35;;;6.40;99.90;;;;;;5135297;27;20168;-56
2021/12/27 10:46:05;;;;;;;16.15;11.70;;;6.40;99.90;;;;;;5135598;27;20642;-56
2021/12/27 10:48:34;;;;;;;29.55;21.88;;;6.50;99.90;;;;;;5135082;27;20172;-53
2021/12/27 10:51:00;;;;;;;32.00;25.13;;;6.60;99.90;;;;;;5135282;27;20250;-55
2021/12/27 10:53:25;;;;;;;25.00;18.80;;;6.60;99.90;;;;;;5135971;27;20267;-56
2021/12/27 10:55:51;;;;;;;15.18;11.63;;;6.60;99.90;;;;;;5135390;27;20536;-55
2021/12/27 10:58:28;;;;;;;15.02;10.43;;;6.70;99.90;;;;;;5135304;27;20515;-55
2021/12/27 11:01:09;;;;;;;24.20;15.30;;;6.70;99.90;;;;;;5134091;27;20666;-54
2021/12/27 11:03:37;;;;;;;12.05;9.25;;;6.70;99.90;;;;;;5134006;27;20624;-55
2021/12/27 11:06:06;;;;;;;21.48;12.00;;;6.70;99.90;;;;;;5134874;27;20523;-54
2021/12/27 11:08:33;;;;;;;15.82;11.40;;;6.70;99.90;;;;;;5133641;27;20643;-55
2021/12/27 11:10:58;;;;;;;13.90;9.32;;;6.70;99.90;;;;;;5135335;27;20230;-55
2021/12/27 11:13:26;;;;;;;18.85;11.18;;;6.80;99.90;;;;;;5134841;27;20168;-55
2021/12/27 11:15:51;;;;;;;21.35;13.95;;;6.80;99.90;;;;;;5134922;27;20214;-55
2021/12/27 11:18:17;;;;;;;13.45;9.55;;;6.80;99.90;;;;;;5134853;27;20655;-55
2021/12/27 11:20:53;;;;;;;33.03;15.52;;;6.90;99.90;;;;;;5134594;27;20214;-55
2021/12/27 11:23:21;;;;;;;21.77;11.98;;;6.90;99.90;;;;;;5134902;27;20159;-55
2021/12/27 11:25:47;;;;;;;25.35;11.68;;;7.00;99.90;;;;;;5133943;27;20251;-53
2021/12/27 11:28:33;;;;;;;35.17;19.60;;;7.00;99.90;;;;;;5116071;27;20172;-52
2021/12/27 11:31:03;;;;;;;15.45;10.38;;;7.10;99.90;;;;;;5135238;27;20267;-53
2021/12/27 11:33:30;;;;;;;133.38;86.00;;;7.10;99.90;;;;;;5134804;27;20176;-53
2021/12/27 11:35:58;;;;;;;43.63;33.80;;;7.20;99.90;;;;;;5134817;27;20200;-52
2021/12/27 11:38:38;;;;;;;20.17;13.95;;;7.20;99.90;;;;;;5134215;27;20182;-53
2021/12/27 11:41:27;;;;;;;14.63;11.05;;;7.30;99.90;;;;;;5134324;27;20568;-54
2021/12/27 11:44:05;;;;;;;17.52;12.13;;;7.30;99.90;;;;;;5134481;27;20197;-55
2021/12/27 11:46:51;;;;;;;19.50;14.15;;;7.40;99.90;;;;;;5134463;27;20168;-54
2021/12/27 11:49:51;;;;;;;13.35;10.85;;;7.40;99.90;;;;;;5134280;27;20255;-54
2021/12/27 11:52:19;;;;;;;12.48;9.00;;;7.50;99.90;;;;;;5116287;27;20608;-55
2021/12/27 11:55:12;;;;;;;12.35;7.28;;;7.60;99.90;;;;;;5134345;27;20172;-55
2021/12/27 11:57:45;;;;;;;9.60;7.40;;;7.50;99.90;;;;;;5123042;27;20176;-53
2021/12/27 12:00:16;;;;;;;8.65;6.18;;;7.50;99.90;;;;;;5134203;27;20207;-54
2021/12/27 12:02:42;;;;;;;30.30;20.10;;;7.60;99.90;;;;;;5133961;27;20176;-55
2021/12/27 12:05:08;;;;;;;24.02;18.38;;;7.60;99.90;;;;;;5134086;27;20159;-53
2021/12/27 12:07:33;;;;;;;7.65;5.68;;;7.60;99.90;;;;;;5133844;27;20187;-54
2021/12/27 12:10:12;;;;;;;9.63;5.65;;;7.60;99.90;;;;;;5134106;27;20654;-53
2021/12/27 12:12:38;;;;;;;9.35;5.68;;;7.70;99.90;;;;;;5133765;27;20167;-55
2021/12/27 12:15:06;;;;;;;8.45;5.32;;;7.80;99.90;;;;;;5134106;27;20176;-53
2021/12/27 12:17:40;;;;;;;5.95;5.35;;;7.80;99.90;;;;;;5133669;27;20213;-54
2021/12/27 12:20:24;;;;;;;9.60;6.35;;;7.80;99.90;;;;;;5133584;27;20790;-55
2021/12/27 12:22:59;;;;;;;9.00;7.25;;;7.80;99.90;;;;;;5133771;27;20558;-55
2021/12/27 12:25:25;;;;;;;11.98;8.25;;;7.90;99.90;;;;;;5133629;27;20181;-55
2021/12/27 12:27:56;;;;;;;10.63;6.20;;;7.80;99.90;;;;;;5133647;27;20638;-55
2021/12/27 12:30:25;;;;;;;8.38;6.40;;;7.80;99.90;;;;;;5133391;27;20242;-55
2021/12/27 12:33:04;;;;;;;10.88;8.27;;;7.80;99.90;;;;;;5133213;27;20999;-56
2021/12/27 12:35:44;;;;;;;8.52;6.93;;;7.80;99.90;;;;;;5133649;27;20549;-55
2021/12/27 12:38:17;;;;;;;26.50;17.35;;;7.80;99.90;;;;;;5132808;27;20179;-55
2021/12/27 12:40:45;;;;;;;8.95;6.85;;;7.80;99.90;;;;;;5133544;27;20260;-55
2021/12/27 12:43:11;;;;;;;15.68;10.50;;;7.80;99.90;;;;;;5115405;27;20258;-56
2021/12/27 12:45:38;;;;;;;30.02;20.42;;;7.80;99.90;;;;;;5133157;27;20553;-55
2021/12/27 12:48:04;;;;;;;54.35;34.25;;;7.70;99.90;;;;;;5114804;27;20166;-56